Time;durP1;ratioP1;P1;durP2;ratioP2;P2;SDS_P1;SDS_P2;PMS_P1;PMS_P2;Temp;Humidity;BMP_temperature;BMP_pressure;BME280_temperature;BME280_humidity;BME280_pressure;Samples;Min_cycle;Max_cycle;Signal;HPM_P1;HPM_P2
2021/03/22 00:01:36;;;;;;;10.95;5.30;;;1.70;93.20;;;0.97;62.34;100137.38;4972100;28;20043;-60
2021/03/22 00:04:02;;;;;;;8.52;4.60;;;1.60;93.80;;;0.90;62.71;100138.69;4967544;28;20043;-53
2021/03/22 00:06:29;;;;;;;6.07;3.53;;;1.50;94.30;;;0.92;62.47;100136.03;4971908;28;20042;-53
2021/03/22 00:08:57;;;;;;;7.75;3.83;;;1.50;94.80;;;0.94;62.18;100136.78;4971323;28;20046;-49
2021/03/22 00:11:23;;;;;;;7.90;3.95;;;1.60;95.20;;;0.88;62.38;100127.72;4972409;28;20039;-54
2021/03/22 00:13:49;;;;;;;4.93;2.22;;;1.50;95.80;;;0.80;62.62;100141.91;4971782;28;20050;-60
2021/03/22 00:16:17;;;;;;;5.30;2.00;;;1.40;96.20;;;0.82;62.94;100143.44;4972640;28;20041;-63
2021/03/22 00:18:43;;;;;;;3.53;1.90;;;1.40;96.90;;;0.81;62.12;100140.97;4953581;28;20045;-60
2021/03/22 00:21:13;;;;;;;6.22;2.40;;;1.40;96.60;;;0.87;62.03;100153.44;4953478;29;20146;-59
2021/03/22 00:23:40;;;;;;;4.60;2.58;;;1.40;97.00;;;0.81;61.89;100148.66;4953356;28;20042;-60
2021/03/22 00:26:06;;;;;;;4.65;2.67;;;1.40;97.00;;;0.71;62.68;100150.94;4968705;28;20440;-55
2021/03/22 00:28:40;;;;;;;5.07;2.28;;;1.40;97.70;;;0.64;63.94;100139.41;4972350;28;20488;-45
2021/03/22 00:31:10;;;;;;;3.55;2.10;;;1.30;98.70;;;0.70;63.21;100139.03;4972004;28;20039;-56
2021/03/22 00:33:36;;;;;;;4.90;1.77;;;1.30;99.30;;;0.61;63.35;100140.41;4969510;28;20038;-53
2021/03/22 00:36:04;;;;;;;4.43;1.88;;;1.30;99.50;;;0.63;63.81;100142.88;4960209;28;20039;-58
2021/03/22 00:38:30;;;;;;;4.40;2.13;;;1.20;99.50;;;0.64;62.97;100129.13;4971124;28;20042;-56
2021/03/22 00:40:56;;;;;;;4.25;1.60;;;1.20;99.50;;;0.55;64.09;100148.44;4971958;28;20042;-61
2021/03/22 00:43:23;;;;;;;8.10;2.50;;;1.20;99.90;;;0.51;63.52;100135.88;4971785;28;20154;-57
2021/03/22 00:45:52;;;;;;;4.78;2.33;;;1.10;99.90;;;0.39;64.05;100131.50;4969138;28;20041;-62
2021/03/22 00:48:18;;;;;;;3.97;2.00;;;1.00;99.90;;;0.32;64.73;100131.84;4969303;28;20039;-55
2021/03/22 00:50:44;;;;;;;3.88;1.77;;;1.00;99.90;;;0.31;64.81;100135.31;4954933;28;20122;-60
2021/03/22 00:53:14;;;;;;;9.30;2.67;;;1.00;99.90;;;0.40;64.67;100128.00;4952634;28;20039;-59
2021/03/22 00:55:40;;;;;;;8.98;2.67;;;1.00;99.90;;;0.45;63.96;100118.31;4950343;28;20118;-58
2021/03/22 00:58:07;;;;;;;5.35;2.75;;;1.00;99.90;;;0.46;64.58;100127.66;4952510;28;20042;-63
2021/03/22 01:00:50;;;;;;;6.25;2.53;;;1.00;99.90;;;0.40;65.09;100121.16;4964858;28;20034;-50
2021/03/22 01:03:24;;;;;;;4.30;2.00;;;1.00;99.90;;;0.26;65.02;100127.06;4970666;28;20171;-56
2021/03/22 01:05:50;;;;;;;5.22;2.20;;;0.90;99.90;;;0.14;65.09;100126.91;4971404;28;20114;-57
2021/03/22 01:08:18;;;;;;;5.93;2.20;;;0.80;99.90;;;0.08;65.67;100132.38;4971837;28;20134;-57
2021/03/22 01:11:15;;;;;;;4.82;2.38;;;0.70;99.90;;;0.02;67.27;100125.03;4970488;28;20042;-58
2021/03/22 01:13:57;;;;;;;4.05;2.45;;;0.60;99.90;;;-0.08;67.22;100117.06;4970836;28;20062;-60
2021/03/22 01:16:35;;;;;;;6.93;2.47;;;0.60;99.90;;;-0.08;67.51;100114.50;4968345;28;20181;-60
2021/03/22 01:19:19;;;;;;;4.38;1.88;;;0.60;99.90;;;-0.12;67.42;100110.47;4964710;28;20042;-57
2021/03/22 01:21:57;;;;;;;4.45;2.00;;;0.50;99.90;;;0.09;66.78;100114.38;4969960;28;20047;-59
2021/03/22 01:24:26;;;;;;;6.82;1.75;;;0.60;99.90;;;0.24;65.68;100116.06;4969895;28;20565;-58
2021/03/22 01:27:00;;;;;;;4.38;1.60;;;0.70;99.90;;;0.22;66.00;100111.94;4971300;28;20039;-53
2021/03/22 01:29:34;;;;;;;5.07;1.95;;;0.80;99.90;;;0.18;64.85;100108.72;4968434;28;20039;-61
2021/03/22 01:32:12;;;;;;;4.85;2.33;;;0.80;99.90;;;0.01;65.66;100098.59;4968818;28;20042;-56
2021/03/22 01:34:38;;;;;;;7.40;2.67;;;0.70;99.90;;;-0.13;66.48;100108.81;4949562;28;20122;-62
2021/03/22 01:37:06;;;;;;;6.32;2.60;;;0.50;99.90;;;-0.22;67.15;100104.19;4971136;28;20048;-57
2021/03/22 01:39:37;;;;;;;12.18;2.58;;;0.40;99.90;;;-0.29;67.33;100095.22;4952940;28;20053;-52
2021/03/22 01:42:38;;;;;;;6.55;2.72;;;0.40;99.90;;;-0.25;68.05;100094.13;4952624;28;20050;-52
2021/03/22 01:45:09;;;;;;;6.13;2.13;;;0.40;99.90;;;-0.27;66.95;100091.66;4965554;28;20573;-63
2021/03/22 01:47:36;;;;;;;5.30;2.05;;;0.30;99.90;;;-0.30;67.15;100088.44;4969076;28;20067;-59
2021/03/22 01:50:18;;;;;;;4.05;2.25;;;0.30;99.90;;;-0.36;67.86;100082.75;4965588;28;20038;-56
2021/03/22 01:52:46;;;;;;;5.97;1.90;;;0.30;99.90;;;-0.44;67.98;100084.06;4969785;28;20043;-60
2021/03/22 01:55:14;;;;;;;3.88;2.00;;;0.20;99.90;;;-0.50;68.57;100085.25;4969991;28;20495;-56
2021/03/22 01:57:46;;;;;;;5.25;2.42;;;0.20;99.90;;;-0.43;68.57;100085.72;4971134;28;20503;-56
2021/03/22 02:00:28;;;;;;;5.05;2.20;;;0.20;99.90;;;-0.42;68.58;100074.56;4968477;28;20092;-59
2021/03/22 02:03:17;;;;;;;7.25;2.30;;;0.20;99.90;;;-0.50;69.80;100072.47;4969509;28;20561;-58
2021/03/22 02:05:51;;;;;;;6.95;2.92;;;0.10;99.90;;;-0.57;70.01;100076.25;4968383;28;20074;-63
2021/03/22 02:08:28;;;;;;;5.35;2.35;;;0.10;99.90;;;-0.52;68.22;100071.72;4970285;28;20045;-57
2021/03/22 02:10:54;;;;;;;5.18;2.38;;;0.10;99.90;;;-0.53;68.43;100069.25;4967496;28;20105;-56
2021/03/22 02:13:31;;;;;;;5.40;2.15;;;0.10;99.90;;;-0.52;68.82;100081.13;4970542;28;20386;-59
2021/03/22 02:16:13;;;;;;;3.95;2.30;;;0.10;99.90;;;-0.56;69.03;100074.53;4952569;28;20038;-53
2021/03/22 02:19:13;;;;;;;5.43;2.63;;;0.10;99.90;;;-0.53;70.47;100064.94;4953333;28;20077;-56
2021/03/22 02:22:18;;;;;;;3.17;1.75;;;0.10;99.90;;;-0.55;71.82;100071.06;4969626;28;20092;-51
2021/03/22 02:25:24;;;;;;;4.50;2.50;;;0.00;99.90;;;-0.46;70.11;100066.22;4969563;28;20050;-51
2021/03/22 02:28:08;;;;;;;6.90;2.90;;;0.10;99.90;;;-0.48;68.20;100078.31;4965384;28;20062;-60
2021/03/22 02:31:13;;;;;;;5.32;2.38;;;0.20;99.90;;;-0.47;69.48;100069.69;4971386;28;20860;-60
2021/03/22 02:34:04;;;;;;;8.57;2.75;;;0.10;99.90;;;-0.56;70.30;100069.41;4967628;28;20042;-59
2021/03/22 02:36:45;;;;;;;6.63;2.83;;;0.00;99.90;;;-0.54;70.07;100075.28;4969408;28;20190;-58
2021/03/22 02:39:12;;;;;;;5.53;1.95;;;0.00;99.90;;;-0.40;68.07;100078.69;4951025;29;20051;-62
2021/03/22 02:41:59;;;;;;;4.95;2.53;;;0.10;99.90;;;-0.38;68.95;100071.75;4968408;28;20067;-58
2021/03/22 02:44:29;;;;;;;6.72;2.40;;;0.20;99.90;;;-0.51;68.01;100075.09;4952162;28;20046;-54
2021/03/22 02:47:07;;;;;;;6.32;2.40;;;0.10;99.90;;;-0.61;68.88;100084.19;4969250;28;20038;-57
2021/03/22 02:49:38;;;;;;;4.90;2.42;;;0.00;99.90;;;-0.68;68.90;100086.25;4969546;28;20479;-61
2021/03/22 02:52:46;;;;;;;7.30;2.70;;;0.00;99.90;;;-0.69;69.57;100095.66;4968455;28;20059;-55
2021/03/22 02:56:07;;;;;;;4.18;1.58;;;-0.10;99.90;;;-0.61;70.45;100092.69;4957885;28;20176;-48
2021/03/22 02:58:57;;;;;;;7.78;2.80;;;0.00;99.90;;;-0.57;68.73;100089.06;4969567;28;20049;-56
2021/03/22 03:01:32;;;;;;;4.07;1.80;;;0.00;99.90;;;-0.43;67.82;100086.53;4933171;28;20047;-53
2021/03/22 03:04:00;;;;;;;4.25;1.90;;;0.10;99.90;;;-0.27;66.84;100075.47;5088263;23;20142;-52
2021/03/22 03:07:00;;;;;;;5.07;1.98;;;0.20;99.90;;;-0.17;67.37;100081.72;4967547;28;20031;-51
2021/03/22 03:09:34;;;;;;;7.38;1.45;;;0.30;99.90;;;-0.12;67.04;100084.88;4970173;28;20035;-60
2021/03/22 03:12:16;;;;;;;3.95;1.42;;;0.30;99.90;;;-0.21;67.79;100085.38;4968424;28;20057;-63
2021/03/22 03:14:54;;;;;;;3.97;1.55;;;0.40;99.90;;;-0.14;67.06;100066.19;4966042;28;20081;-62
2021/03/22 03:17:23;;;;;;;5.22;2.05;;;0.40;99.90;;;-0.09;67.18;100079.56;4967568;28;20049;-56
2021/03/22 03:19:51;;;;;;;6.68;1.40;;;0.40;99.90;;;-0.09;67.13;100070.16;4969944;28;20148;-47
2021/03/22 03:22:18;;;;;;;4.85;1.40;;;0.50;99.90;;;-0.04;65.89;100072.44;4965705;28;20214;-56
2021/03/22 03:24:44;;;;;;;4.78;1.40;;;0.50;99.90;;;0.04;65.63;100077.94;4968878;28;20035;-51
2021/03/22 03:27:12;;;;;;;5.03;2.00;;;0.50;99.90;;;0.03;65.51;100081.41;4965901;28;20132;-61
2021/03/22 03:29:40;;;;;;;2.97;1.40;;;0.60;99.90;;;0.05;65.12;100082.16;4969928;28;20113;-56
2021/03/22 03:32:12;;;;;;;4.32;1.67;;;0.60;99.90;;;0.15;65.12;100085.84;4967299;28;20086;-60
2021/03/22 03:34:39;;;;;;;6.53;1.70;;;0.70;99.90;;;0.26;64.49;100083.50;4965655;28;20062;-61
2021/03/22 03:37:06;;;;;;;6.40;1.80;;;0.70;99.90;;;0.41;63.95;100086.09;4969027;28;20117;-57
2021/03/22 03:39:33;;;;;;;5.75;2.20;;;0.80;99.90;;;0.41;63.47;100088.66;4968547;28;20053;-53
2021/03/22 03:41:59;;;;;;;4.30;1.55;;;0.90;99.90;;;0.38;63.90;100087.09;4969737;28;20046;-54
2021/03/22 03:44:26;;;;;;;6.40;1.73;;;0.90;99.90;;;0.26;63.95;100088.63;4967838;28;20066;-51
2021/03/22 03:46:52;;;;;;;6.55;1.70;;;0.90;99.90;;;0.20;64.38;100083.84;4966272;28;20146;-52
2021/03/22 03:49:18;;;;;;;5.63;1.77;;;0.80;99.90;;;0.14;64.59;100086.75;4968576;28;20051;-57
2021/03/22 03:51:44;;;;;;;5.47;1.75;;;0.70;99.90;;;0.09;65.30;100091.31;4966079;28;20039;-50
2021/03/22 03:54:11;;;;;;;4.60;1.50;;;0.60;99.90;;;0.02;65.33;100091.75;4969523;28;20051;-57
2021/03/22 03:56:37;;;;;;;7.10;1.95;;;0.60;99.90;;;-0.02;65.59;100093.69;4968440;28;20569;-55
2021/03/22 03:59:06;;;;;;;5.03;1.60;;;0.60;99.90;;;-0.01;64.91;100090.22;4969443;28;20041;-61
2021/03/22 04:01:33;;;;;;;5.38;2.00;;;0.60;99.90;;;-0.03;64.89;100094.59;4966386;28;20813;-56
2021/03/22 04:04:00;;;;;;;6.65;2.15;;;0.50;99.90;;;-0.02;64.95;100083.44;4967568;28;20303;-62
2021/03/22 04:06:30;;;;;;;5.38;1.55;;;0.50;99.90;;;-0.04;65.06;100083.53;4964685;28;20034;-60
2021/03/22 04:09:09;;;;;;;6.47;2.00;;;0.50;99.90;;;-0.02;65.06;100080.88;4948754;29;20031;-62
2021/03/22 04:11:46;;;;;;;7.38;1.90;;;0.50;99.90;;;0.11;65.07;100092.06;4976295;28;20043;-59
2021/03/22 04:14:23;;;;;;;8.98;1.75;;;0.60;99.90;;;0.21;64.43;100085.50;4969239;28;20113;-60
2021/03/22 04:16:50;;;;;;;5.40;1.75;;;0.70;99.90;;;0.26;63.74;100086.06;4967584;28;20030;-57
2021/03/22 04:19:17;;;;;;;5.65;1.92;;;0.80;99.90;;;0.26;63.95;100083.50;4969306;28;20055;-60
2021/03/22 04:21:45;;;;;;;7.70;2.28;;;0.80;99.90;;;0.26;63.84;100080.94;4964452;28;20034;-60
2021/03/22 04:24:12;;;;;;;8.95;3.22;;;0.80;99.90;;;0.18;64.71;100088.22;4971292;28;20042;-53
2021/03/22 04:26:38;;;;;;;5.03;1.50;;;0.80;99.90;;;0.16;64.57;100090.06;4970967;28;20146;-58
2021/03/22 04:29:05;;;;;;;5.22;1.95;;;0.70;99.90;;;0.14;64.20;100091.88;4971603;28;20062;-52
2021/03/22 04:31:31;;;;;;;10.27;2.33;;;0.70;99.90;;;0.14;64.76;100091.06;4971523;28;20458;-53
2021/03/22 04:33:59;;;;;;;9.00;2.28;;;0.70;99.90;;;0.15;64.59;100080.72;4953404;29;20140;-60
2021/03/22 04:36:33;;;;;;;5.68;1.85;;;0.70;99.90;;;0.08;64.64;100092.22;4963586;28;20054;-59
2021/03/22 04:38:59;;;;;;;6.28;2.25;;;0.70;99.90;;;0.16;64.49;100090.06;4970850;28;20486;-54
2021/03/22 04:41:26;;;;;;;10.05;2.05;;;0.70;99.90;;;0.16;65.10;100089.22;4971516;28;20053;-61
2021/03/22 04:43:53;;;;;;;5.43;1.63;;;0.70;99.90;;;0.17;63.86;100080.63;4955026;28;20506;-60
2021/03/22 04:46:19;;;;;;;6.28;1.10;;;0.70;99.90;;;0.14;64.33;100080.81;4971115;28;20031;-52
2021/03/22 04:48:45;;;;;;;3.72;1.20;;;0.70;99.90;;;0.14;63.52;100076.50;4964842;28;20469;-63
2021/03/22 04:51:11;;;;;;;2.90;0.80;;;0.70;99.90;;;0.26;63.48;100091.19;4968747;28;20075;-57
2021/03/22 04:53:37;;;;;;;5.72;1.73;;;0.70;99.90;;;0.29;63.44;100091.00;4968734;28;20039;-54
2021/03/22 04:56:08;;;;;;;4.57;1.20;;;0.80;99.90;;;0.25;63.16;100086.97;4970748;28;20047;-56
2021/03/22 04:58:38;;;;;;;4.60;1.05;;;0.80;99.90;;;0.23;63.50;100091.34;4972453;28;20043;-61
2021/03/22 05:01:05;;;;;;;3.88;1.42;;;0.80;99.90;;;0.21;63.49;100089.78;4970574;28;20030;-58
2021/03/22 05:03:32;;;;;;;2.78;0.98;;;0.80;99.90;;;0.19;63.40;100084.75;4970741;28;20334;-51
2021/03/22 05:05:58;;;;;;;5.75;1.15;;;0.80;99.90;;;0.12;63.54;100088.59;4971178;28;20030;-55
2021/03/22 05:08:25;;;;;;;3.53;1.02;;;0.70;99.90;;;0.09;65.30;100098.19;4970809;28;20034;-61
2021/03/22 05:10:57;;;;;;;5.30;1.92;;;0.70;99.90;;;0.08;64.05;100096.53;4971996;28;20598;-56
2021/03/22 05:13:23;;;;;;;4.55;1.33;;;0.70;99.90;;;-0.08;64.81;100091.47;4970800;28;20065;-57
2021/03/22 05:15:51;;;;;;;5.22;1.98;;;0.60;99.90;;;-0.09;64.69;100094.94;4970565;28;20097;-56
2021/03/22 05:18:19;;;;;;;2.63;0.90;;;0.60;99.90;;;0.03;64.09;100103.63;4968030;28;20576;-50
2021/03/22 05:20:54;;;;;;;4.57;1.10;;;0.60;99.90;;;0.19;63.61;100089.06;4968567;28;20035;-61
2021/03/22 05:23:25;;;;;;;5.05;1.67;;;0.70;99.90;;;0.25;62.91;100093.84;4967068;28;20492;-60
2021/03/22 05:25:53;;;;;;;4.97;1.45;;;0.80;99.90;;;0.21;63.68;100093.19;4970393;28;20026;-56
2021/03/22 05:28:21;;;;;;;7.57;3.63;;;0.80;99.90;;;0.05;63.83;100101.81;4970910;28;20505;-58
2021/03/22 05:30:47;;;;;;;10.23;3.05;;;0.70;99.90;;;-0.12;65.30;100108.72;4971990;28;20033;-55
2021/03/22 05:33:16;;;;;;;6.63;2.03;;;0.60;99.90;;;-0.02;68.39;100096.25;4968002;28;20201;-55
2021/03/22 05:35:45;;;;;;;4.45;2.20;;;0.60;99.90;;;0.13;64.28;100100.47;4970308;28;20042;-57
2021/03/22 05:38:11;;;;;;;5.35;1.23;;;0.70;99.90;;;0.83;63.28;100096.38;4964716;28;20090;-65
2021/03/22 05:40:41;;;;;;;5.68;1.40;;;1.20;99.90;;;2.75;58.36;100094.31;4971395;28;20034;-58
2021/03/22 05:43:37;;;;;;;3.75;1.08;;;3.40;94.10;;;4.57;53.56;100102.75;4970516;28;20043;-58
2021/03/22 05:46:33;;;;;;;6.35;0.93;;;5.90;79.60;;;5.26;50.44;100104.25;4969953;28;20047;-59
2021/03/22 05:49:22;;;;;;;4.63;1.23;;;7.40;66.00;;;6.42;46.24;100086.34;4975005;28;20038;-54
2021/03/22 05:52:00;;;;;;;5.40;1.40;;;8.60;60.30;;;7.18;44.69;100087.63;4970601;28;20037;-54
2021/03/22 05:54:50;;;;;;;4.28;1.27;;;9.70;57.90;;;7.47;43.28;100093.72;4967246;28;20051;-58
2021/03/22 05:57:44;;;;;;;7.80;1.48;;;10.30;54.30;;;6.53;45.63;100091.47;4970072;28;20054;-59
2021/03/22 06:00:35;;;;;;;3.90;1.30;;;10.20;53.20;;;6.40;46.45;100102.00;4969263;28;20038;-60
2021/03/22 06:03:05;;;;;;;6.95;2.15;;;9.80;52.90;;;6.87;46.21;100104.97;4966956;28;20049;-51
2021/03/22 06:05:52;;;;;;;4.50;1.35;;;10.10;52.40;;;6.36;45.57;100105.78;4966298;28;20051;-56
2021/03/22 06:08:54;;;;;;;6.18;1.98;;;10.30;52.20;;;6.07;46.89;100100.44;4958246;28;20058;-54
2021/03/22 06:11:39;;;;;;;4.70;1.38;;;10.10;51.60;;;6.45;45.63;100104.22;4960458;28;20058;-59
2021/03/22 06:14:52;;;;;;;3.05;0.95;;;10.30;50.60;;;5.84;47.32;100112.59;4969725;28;20038;-58
2021/03/22 06:17:27;;;;;;;5.10;1.50;;;10.30;50.40;;;6.12;46.32;100108.63;4964501;28;20057;-52
2021/03/22 06:20:00;;;;;;;2.42;0.80;;;10.20;50.30;;;5.89;45.04;100113.06;4959429;28;20685;-54
2021/03/22 06:22:32;;;;;;;3.20;0.68;;;9.50;49.50;;;5.77;45.66;100118.34;4969978;28;20070;-58
2021/03/22 06:25:13;;;;;;;2.67;0.95;;;8.80;51.10;;;5.30;47.87;100120.34;4969209;28;20073;-50
2021/03/22 06:27:39;;;;;;;5.93;1.10;;;7.70;54.70;;;4.62;48.34;100124.69;4967013;28;20059;-51
2021/03/22 06:30:06;;;;;;;4.78;1.25;;;6.20;58.10;;;4.06;49.89;100120.31;4970173;28;20478;-55
2021/03/22 06:32:44;;;;;;;6.40;1.80;;;5.20;61.50;;;3.54;52.29;100119.69;4965731;28;20065;-54
2021/03/22 06:35:21;;;;;;;5.47;1.63;;;4.50;65.40;;;3.39;52.59;100123.34;4953486;28;20039;-59
2021/03/22 06:37:47;;;;;;;9.45;1.92;;;4.20;66.60;;;3.69;51.44;100122.13;4969162;28;20149;-50
2021/03/22 06:40:15;;;;;;;5.78;1.30;;;4.20;66.70;;;3.85;51.09;100118.31;4958385;28;20190;-51
2021/03/22 06:42:44;;;;;;;6.47;2.00;;;4.40;66.90;;;4.02;50.64;100127.44;4947485;28;20027;-50
2021/03/22 06:46:12;;;;;;;7.20;1.50;;;4.60;66.70;;;4.46;50.98;100131.09;4947118;28;20031;-52
2021/03/22 06:48:39;;;;;;;11.00;2.42;;;4.90;68.10;;;4.51;50.73;100127.22;4925021;29;20035;-57
2021/03/22 06:51:04;;;;;;;9.00;2.70;;;5.10;67.90;;;4.60;50.67;100120.56;4925925;29;20154;-53
2021/03/22 06:53:45;;;;;;;7.10;2.25;;;5.20;67.90;;;4.65;50.94;100126.22;4909850;29;20091;-49
2021/03/22 06:56:36;;;;;;;9.75;2.25;;;5.20;67.70;;;4.57;51.76;100128.53;4928369;29;20036;-58
2021/03/22 06:59:18;;;;;;;9.15;2.30;;;5.30;69.70;;;4.83;50.77;100139.47;4928823;29;20051;-52
2021/03/22 07:01:47;;;;;;;6.20;1.67;;;5.40;68.40;;;5.08;48.46;100135.88;4928702;29;20047;-58
2021/03/22 07:04:30;;;;;;;5.57;1.70;;;5.70;66.10;;;5.36;47.61;100143.13;4928649;29;20449;-58
2021/03/22 07:07:22;;;;;;;6.18;1.65;;;6.10;65.20;;;5.42;46.79;100141.81;4928650;29;20226;-57
2021/03/22 07:10:00;;;;;;;10.38;2.40;;;6.30;62.90;;;5.53;46.77;100144.41;4928770;29;20403;-57
2021/03/22 07:12:35;;;;;;;7.20;0.98;;;6.30;63.60;;;5.37;46.71;100151.69;4912740;29;20055;-55
2021/03/22 07:15:30;;;;;;;8.63;1.40;;;6.10;62.60;;;5.52;46.50;100140.16;4928594;29;20055;-55
2021/03/22 07:18:21;;;;;;;4.65;1.35;;;6.00;63.10;;;5.88;46.02;100149.34;4914068;28;20495;-48
2021/03/22 07:21:12;;;;;;;9.13;1.65;;;6.30;63.30;;;6.26;45.48;100149.72;4969672;28;20035;-58
2021/03/22 07:23:53;;;;;;;5.55;2.20;;;6.60;62.80;;;6.37;45.10;100150.59;4944377;29;20143;-52
2021/03/22 07:26:35;;;;;;;6.90;1.95;;;6.70;62.60;;;6.71;44.24;100162.41;4966158;28;20407;-57
2021/03/22 07:29:40;;;;;;;6.07;2.00;;;7.00;62.30;;;6.98;43.91;100154.94;4951954;28;20057;-59
2021/03/22 07:32:35;;;;;;;8.23;2.20;;;7.30;61.20;;;7.12;43.76;100158.13;4968019;28;20034;-57
2021/03/22 07:35:24;;;;;;;6.05;1.80;;;7.60;60.10;;;7.48;43.52;100155.00;4969456;28;20081;-47
2021/03/22 07:38:04;;;;;;;4.18;1.75;;;7.90;60.10;;;7.83;42.73;100154.50;4969557;28;20108;-54
2021/03/22 07:40:45;;;;;;;7.10;2.10;;;8.10;59.30;;;8.18;41.82;100156.56;4949900;28;20031;-51
2021/03/22 07:43:29;;;;;;;6.22;2.40;;;8.40;59.40;;;8.49;41.53;100156.47;4951561;28;20626;-50
2021/03/22 07:46:16;;;;;;;5.45;2.05;;;8.80;59.20;;;8.68;41.35;100158.19;4969045;28;20410;-57
2021/03/22 07:49:02;;;;;;;4.32;2.08;;;9.20;57.40;;;8.86;40.66;100151.34;4968044;28;20038;-56
2021/03/22 07:51:49;;;;;;;4.90;2.20;;;9.30;57.10;;;8.74;40.07;100149.84;4968517;28;20394;-56
2021/03/22 07:54:27;;;;;;;6.28;2.15;;;9.30;55.50;;;8.74;40.55;100155.03;4968273;28;20764;-54
2021/03/22 07:57:22;;;;;;;9.43;2.47;;;9.20;56.10;;;9.04;40.43;100154.81;4967979;28;20097;-53
2021/03/22 08:00:23;;;;;;;4.32;2.22;;;9.40;56.10;;;9.23;38.27;100159.13;4971669;28;20050;-55
2021/03/22 08:03:21;;;;;;;4.57;2.10;;;9.70;54.80;;;9.57;36.91;100167.97;4936580;28;20118;-56
2021/03/22 08:05:53;;;;;;;3.72;2.03;;;10.00;54.90;;;9.57;39.34;100170.59;4972303;28;20086;-51
2021/03/22 08:08:42;;;;;;;6.05;2.28;;;10.00;54.40;;;10.01;37.14;100170.72;4971985;28;20525;-51
2021/03/22 08:11:28;;;;;;;9.80;1.98;;;10.40;54.10;;;10.18;36.84;100167.31;4972782;28;20045;-51
2021/03/22 08:13:57;;;;;;;4.38;1.92;;;10.50;53.40;;;9.99;37.46;100172.66;4972568;28;20031;-54
2021/03/22 08:17:10;;;;;;;5.65;2.67;;;10.60;51.40;;;10.10;35.25;100177.63;4972846;28;20043;-54
2021/03/22 08:20:05;;;;;;;3.30;2.30;;;10.70;50.80;;;10.40;35.97;100170.47;4958536;28;20050;-55
2021/03/22 08:22:52;;;;;;;6.53;2.90;;;10.80;51.40;;;10.87;34.40;100176.19;4955979;28;20458;-55
2021/03/22 08:25:48;;;;;;;3.47;1.92;;;11.30;50.20;;;11.04;34.85;100179.69;4972711;28;20047;-54
2021/03/22 08:28:45;;;;;;;7.57;3.25;;;11.40;49.50;;;11.34;33.48;100176.59;4972864;28;20050;-51
2021/03/22 08:31:16;;;;;;;3.58;2.30;;;11.80;48.70;;;11.52;34.40;100187.75;4972308;28;20050;-54
2021/03/22 08:33:58;;;;;;;4.97;1.77;;;12.00;48.60;;;11.43;33.29;100177.41;4972373;28;20046;-55
2021/03/22 08:36:42;;;;;;;7.15;2.13;;;11.90;48.00;;;11.15;33.65;100179.41;4972340;28;20026;-56
2021/03/22 08:39:26;;;;;;;4.97;2.40;;;11.90;47.30;;;10.53;34.63;100181.28;4955132;28;20034;-56
2021/03/22 08:42:09;;;;;;;3.97;2.58;;;11.40;48.30;;;10.02;36.11;100177.56;4971184;28;20039;-54
2021/03/22 08:44:53;;;;;;;5.35;2.47;;;11.00;48.80;;;9.98;36.07;100184.03;4955585;28;20049;-59
2021/03/22 08:47:57;;;;;;;3.92;2.58;;;10.90;49.20;;;9.69;36.92;100180.78;4971024;28;20042;-54
2021/03/22 08:50:32;;;;;;;4.53;2.83;;;10.60;50.00;;;9.62;37.81;100175.34;4962311;28;20402;-60
2021/03/22 08:53:09;;;;;;;10.27;3.35;;;10.40;50.40;;;9.73;36.70;100171.75;4968970;28;20573;-59
2021/03/22 08:55:49;;;;;;;8.57;3.40;;;10.30;50.00;;;9.76;36.92;100171.44;4972191;28;20093;-60
2021/03/22 08:58:47;;;;;;;4.80;2.70;;;10.40;50.20;;;10.49;35.82;100170.34;4955207;28;20050;-60
2021/03/22 09:01:32;;;;;;;8.75;3.13;;;10.80;50.10;;;10.84;33.06;100174.69;4957075;28;20117;-56
2021/03/22 09:04:32;;;;;;;4.25;2.33;;;11.30;47.60;;;10.16;33.44;100179.66;4971799;28;20061;-58
2021/03/22 09:07:22;;;;;;;4.75;2.35;;;11.00;47.50;;;9.79;34.71;100189.38;4969272;28;20114;-55
2021/03/22 09:09:49;;;;;;;7.35;2.63;;;10.60;48.00;;;10.52;34.65;100179.66;4947345;28;20418;-56
2021/03/22 09:12:34;;;;;;;5.65;3.00;;;10.90;48.10;;;11.17;31.01;100174.88;4972013;28;20031;-61
2021/03/22 09:15:10;;;;;;;4.45;2.72;;;11.50;46.30;;;11.99;32.23;100181.22;4972261;28;20054;-59
2021/03/22 09:17:48;;;;;;;3.08;2.42;;;12.10;46.30;;;11.94;31.02;100172.06;4969641;28;20031;-55
2021/03/22 09:20:53;;;;;;;5.88;2.97;;;12.60;44.40;;;11.85;30.59;100177.41;4969395;28;20039;-58
2021/03/22 09:23:31;;;;;;;3.30;2.65;;;12.50;44.50;;;11.39;32.20;100179.53;4971700;28;20104;-57
2021/03/22 09:26:04;;;;;;;9.95;2.88;;;12.30;45.00;;;11.09;32.95;100185.25;4952651;29;20047;-58
2021/03/22 09:28:32;;;;;;;7.40;3.42;;;12.00;44.80;;;11.10;33.21;100179.06;4937455;28;20035;-57
2021/03/22 09:31:12;;;;;;;4.90;3.28;;;11.80;44.90;;;11.80;32.28;100177.09;4971896;28;20518;-58
2021/03/22 09:34:02;;;;;;;7.35;2.80;;;12.20;45.30;;;11.71;30.79;100168.41;4971298;28;20061;-55
2021/03/22 09:36:37;;;;;;;8.30;2.72;;;12.40;44.20;;;11.21;33.14;100168.38;4971746;28;20042;-59
2021/03/22 09:39:17;;;;;;;6.32;2.60;;;12.10;44.90;;;11.32;32.70;100168.09;4970346;28;20039;-60
2021/03/22 09:41:55;;;;;;;5.15;3.03;;;12.10;45.00;;;12.24;31.13;100175.06;4969963;28;20069;-60
2021/03/22 09:44:28;;;;;;;6.25;2.92;;;12.60;44.20;;;13.30;29.94;100186.19;4971438;28;20074;-57
2021/03/22 09:47:17;;;;;;;4.45;2.90;;;13.40;44.00;;;13.50;27.18;100186.63;4969436;28;20455;-55
2021/03/22 09:49:59;;;;;;;5.70;2.67;;;14.00;41.40;;;13.02;27.40;100179.72;4956507;28;20046;-55
2021/03/22 09:52:29;;;;;;;3.92;2.42;;;14.00;39.50;;;12.29;30.52;100178.78;4971415;28;20069;-57
2021/03/22 09:54:57;;;;;;;5.53;3.47;;;13.30;41.40;;;12.90;30.25;100172.22;4971632;28;20047;-61
2021/03/22 09:57:42;;;;;;;5.10;2.53;;;13.40;42.70;;;13.35;28.47;100181.28;4971185;28;20176;-54
2021/03/22 10:00:35;;;;;;;7.20;3.47;;;13.90;42.50;;;13.24;28.37;100184.25;4970435;28;20129;-57
2021/03/22 10:03:28;;;;;;;6.28;3.20;;;14.00;41.00;;;12.71;29.06;100177.81;4970958;28;20050;-58
2021/03/22 10:05:59;;;;;;;8.52;1.85;;;13.60;41.70;;;12.50;30.26;100180.94;4971512;28;20054;-53
2021/03/22 10:08:32;;;;;;;4.78;1.95;;;13.40;42.10;;;12.30;30.58;100185.66;4971061;28;20509;-58
2021/03/22 10:11:04;;;;;;;3.33;2.55;;;13.10;42.40;;;12.02;30.87;100183.50;4952890;28;20035;-56
2021/03/22 10:13:47;;;;;;;4.00;2.78;;;12.80;42.60;;;12.47;28.47;100175.22;4969760;28;20105;-53
2021/03/22 10:16:26;;;;;;;3.60;2.05;;;12.90;41.50;;;12.55;29.62;100175.22;4969629;28;20027;-52
2021/03/22 10:18:59;;;;;;;3.22;2.28;;;13.10;42.20;;;13.43;28.62;100188.28;4967249;28;20402;-52
2021/03/22 10:21:37;;;;;;;2.55;1.85;;;13.60;41.50;;;13.82;26.77;100189.06;4969800;28;20254;-59
2021/03/22 10:24:46;;;;;;;2.97;2.08;;;14.10;40.10;;;14.04;27.27;100179.63;4953365;28;20075;-54
2021/03/22 10:27:35;;;;;;;2.92;1.73;;;14.50;39.60;;;12.75;27.74;100186.97;4910778;29;20051;-58
2021/03/22 10:30:15;;;;;;;5.53;2.63;;;13.70;39.90;;;12.17;28.76;100185.31;4910415;29;20526;-56
2021/03/22 10:33:11;;;;;;;4.05;3.13;;;13.10;40.80;;;12.40;28.68;100180.25;4909935;29;20056;-56
2021/03/22 10:35:48;;;;;;;3.53;2.38;;;13.00;41.60;;;12.51;28.74;100181.75;4909892;29;20142;-53
2021/03/22 10:38:36;;;;;;;14.95;4.43;;;13.10;41.20;;;12.80;30.58;100176.81;4910200;29;20048;-53
2021/03/22 10:41:22;;;;;;;6.32;2.72;;;13.30;42.90;;;12.93;28.35;100177.13;4909827;29;20131;-60
2021/03/22 10:43:56;;;;;;;5.85;2.50;;;13.50;40.20;;;12.65;29.43;100175.88;4910091;29;20047;-55
2021/03/22 10:46:27;;;;;;;8.68;2.80;;;13.30;41.30;;;12.42;29.71;100174.88;4909554;29;20456;-54
2021/03/22 10:49:06;;;;;;;4.65;2.10;;;13.10;41.20;;;12.78;30.50;100184.00;4910012;29;20052;-60
2021/03/22 10:51:46;;;;;;;5.22;2.33;;;13.30;43.00;;;13.40;28.56;100173.72;4909510;29;20035;-54
2021/03/22 10:54:21;;;;;;;5.03;2.35;;;13.80;42.40;;;13.28;30.32;100177.69;4909659;29;20524;-52
2021/03/22 10:56:57;;;;;;;12.32;7.28;;;13.90;42.70;;;13.24;29.85;100181.63;4908719;29;20032;-51
2021/03/22 10:59:34;;;;;;;15.23;4.75;;;13.90;41.70;;;13.21;28.82;100179.38;4909749;29;20071;-55
2021/03/22 11:02:17;;;;;;;8.52;3.47;;;13.90;42.00;;;13.12;29.91;100180.34;4958840;28;20050;-45
2021/03/22 11:04:45;;;;;;;6.05;2.92;;;13.80;42.00;;;13.19;30.01;100181.34;4967540;28;20050;-49